sensor_id;sensor_type;location;lat;lon;timestamp;P1;durP1;ratioP1;P2;durP2;ratioP2
18286;SDS011;9269;50.838;12.094;2022-09-13T00:01:08;7.13;;;5.10;;
18286;SDS011;9269;50.838;12.094;2022-09-13T00:03:37;5.53;;;5.07;;
18286;SDS011;9269;50.838;12.094;2022-09-13T00:06:08;5.57;;;5.10;;
18286;SDS011;9269;50.838;12.094;2022-09-13T00:08:39;5.43;;;4.93;;
18286;SDS011;9269;50.838;12.094;2022-09-13T00:11:13;5.53;;;4.90;;
18286;SDS011;9269;50.838;12.094;2022-09-13T00:13:44;4.93;;;4.53;;
18286;SDS011;9269;50.838;12.094;2022-09-13T00:16:13;5.17;;;4.77;;
18286;SDS011;9269;50.838;12.094;2022-09-13T00:18:43;5.70;;;5.20;;
18286;SDS011;9269;50.838;12.094;2022-09-13T00:21:11;5.60;;;5.00;;
18286;SDS011;9269;50.838;12.094;2022-09-13T00:23:43;5.47;;;4.83;;
18286;SDS011;9269;50.838;12.094;2022-09-13T00:26:13;5.47;;;4.90;;
18286;SDS011;9269;50.838;12.094;2022-09-13T00:28:43;5.40;;;4.97;;
18286;SDS011;9269;50.838;12.094;2022-09-13T00:31:12;5.40;;;4.93;;
18286;SDS011;9269;50.838;12.094;2022-09-13T00:33:42;6.10;;;5.10;;
18286;SDS011;9269;50.838;12.094;2022-09-13T00:36:10;6.40;;;5.47;;
18286;SDS011;9269;50.838;12.094;2022-09-13T00:38:41;9.03;;;7.07;;
18286;SDS011;9269;50.838;12.094;2022-09-13T00:41:12;6.77;;;6.13;;
18286;SDS011;9269;50.838;12.094;2022-09-13T00:43:44;5.77;;;5.33;;
18286;SDS011;9269;50.838;12.094;2022-09-13T00:46:16;7.73;;;7.03;;
18286;SDS011;9269;50.838;12.094;2022-09-13T00:48:49;7.17;;;6.47;;
18286;SDS011;9269;50.838;12.094;2022-09-13T00:51:24;6.90;;;6.27;;
18286;SDS011;9269;50.838;12.094;2022-09-13T00:53:54;7.33;;;6.43;;
18286;SDS011;9269;50.838;12.094;2022-09-13T00:56:27;7.90;;;7.10;;
18286;SDS011;9269;50.838;12.094;2022-09-13T00:59:00;5.73;;;5.23;;
18286;SDS011;9269;50.838;12.094;2022-09-13T01:01:33;7.93;;;7.03;;
18286;SDS011;9269;50.838;12.094;2022-09-13T01:04:08;8.80;;;7.60;;
18286;SDS011;9269;50.838;12.094;2022-09-13T01:06:38;9.60;;;8.70;;
18286;SDS011;9269;50.838;12.094;2022-09-13T01:09:10;10.77;;;8.30;;
18286;SDS011;9269;50.838;12.094;2022-09-13T01:11:41;8.57;;;7.67;;
18286;SDS011;9269;50.838;12.094;2022-09-13T01:14:15;7.80;;;7.00;;
18286;SDS011;9269;50.838;12.094;2022-09-13T01:16:45;8.33;;;7.17;;
18286;SDS011;9269;50.838;12.094;2022-09-13T01:19:14;8.23;;;7.13;;
18286;SDS011;9269;50.838;12.094;2022-09-13T01:22:00;9.33;;;8.33;;
18286;SDS011;9269;50.838;12.094;2022-09-13T01:24:48;7.43;;;6.60;;
18286;SDS011;9269;50.838;12.094;2022-09-13T01:27:49;9.07;;;8.07;;
18286;SDS011;9269;50.838;12.094;2022-09-13T01:30:40;8.83;;;7.67;;
18286;SDS011;9269;50.838;12.094;2022-09-13T01:33:17;8.13;;;7.33;;
18286;SDS011;9269;50.838;12.094;2022-09-13T01:35:55;8.60;;;7.73;;
18286;SDS011;9269;50.838;12.094;2022-09-13T01:38:43;8.43;;;7.60;;
18286;SDS011;9269;50.838;12.094;2022-09-13T01:41:25;7.93;;;7.07;;
18286;SDS011;9269;50.838;12.094;2022-09-13T01:44:11;8.20;;;7.07;;
18286;SDS011;9269;50.838;12.094;2022-09-13T01:46:47;8.97;;;7.57;;
18286;SDS011;9269;50.838;12.094;2022-09-13T01:49:20;7.77;;;7.00;;
18286;SDS011;9269;50.838;12.094;2022-09-13T01:51:55;7.77;;;6.70;;
18286;SDS011;9269;50.838;12.094;2022-09-13T01:54:29;6.77;;;6.17;;
18286;SDS011;9269;50.838;12.094;2022-09-13T01:57:05;7.00;;;5.97;;
18286;SDS011;9269;50.838;12.094;2022-09-13T01:59:41;7.10;;;6.43;;
18286;SDS011;9269;50.838;12.094;2022-09-13T02:02:15;6.70;;;6.03;;
18286;SDS011;9269;50.838;12.094;2022-09-13T02:04:47;6.40;;;5.73;;
18286;SDS011;9269;50.838;12.094;2022-09-13T02:07:20;6.47;;;5.87;;
18286;SDS011;9269;50.838;12.094;2022-09-13T02:09:53;7.00;;;6.37;;
18286;SDS011;9269;50.838;12.094;2022-09-13T02:12:26;6.87;;;5.80;;
18286;SDS011;9269;50.838;12.094;2022-09-13T02:14:57;7.07;;;6.37;;
18286;SDS011;9269;50.838;12.094;2022-09-13T02:17:35;7.70;;;6.40;;
18286;SDS011;9269;50.838;12.094;2022-09-13T02:20:06;6.23;;;5.63;;
18286;SDS011;9269;50.838;12.094;2022-09-13T02:22:40;6.43;;;5.83;;
18286;SDS011;9269;50.838;12.094;2022-09-13T02:25:13;6.47;;;5.67;;
18286;SDS011;9269;50.838;12.094;2022-09-13T02:27:45;7.63;;;6.87;;
18286;SDS011;9269;50.838;12.094;2022-09-13T02:30:18;7.23;;;6.53;;
18286;SDS011;9269;50.838;12.094;2022-09-13T02:32:51;6.57;;;5.87;;
18286;SDS011;9269;50.838;12.094;2022-09-13T02:35:23;7.10;;;6.27;;
18286;SDS011;9269;50.838;12.094;2022-09-13T02:37:59;7.37;;;6.50;;
18286;SDS011;9269;50.838;12.094;2022-09-13T02:40:31;6.40;;;5.80;;
18286;SDS011;9269;50.838;12.094;2022-09-13T02:43:05;6.77;;;6.17;;
18286;SDS011;9269;50.838;12.094;2022-09-13T02:45:40;6.20;;;5.70;;
18286;SDS011;9269;50.838;12.094;2022-09-13T02:48:15;6.50;;;5.90;;
18286;SDS011;9269;50.838;12.094;2022-09-13T02:50:51;7.53;;;6.83;;
18286;SDS011;9269;50.838;12.094;2022-09-13T02:53:26;6.00;;;5.50;;
18286;SDS011;9269;50.838;12.094;2022-09-13T02:56:04;6.10;;;5.50;;
18286;SDS011;9269;50.838;12.094;2022-09-13T02:58:44;7.17;;;6.43;;
18286;SDS011;9269;50.838;12.094;2022-09-13T03:01:17;6.47;;;5.87;;
18286;SDS011;9269;50.838;12.094;2022-09-13T03:03:49;6.77;;;6.17;;
18286;SDS011;9269;50.838;12.094;2022-09-13T03:06:21;6.67;;;6.07;;
18286;SDS011;9269;50.838;12.094;2022-09-13T03:08:49;6.33;;;5.73;;
18286;SDS011;9269;50.838;12.094;2022-09-13T03:11:20;6.87;;;6.13;;
18286;SDS011;9269;50.838;12.094;2022-09-13T03:14:03;6.40;;;5.90;;
18286;SDS011;9269;50.838;12.094;2022-09-13T03:16:47;6.17;;;5.67;;
18286;SDS011;9269;50.838;12.094;2022-09-13T03:19:35;6.93;;;6.33;;
18286;SDS011;9269;50.838;12.094;2022-09-13T03:22:15;6.83;;;6.00;;
18286;SDS011;9269;50.838;12.094;2022-09-13T03:24:56;6.50;;;5.90;;
18286;SDS011;9269;50.838;12.094;2022-09-13T03:27:33;6.43;;;5.83;;
18286;SDS011;9269;50.838;12.094;2022-09-13T03:30:06;6.63;;;5.90;;
18286;SDS011;9269;50.838;12.094;2022-09-13T03:32:38;6.37;;;5.87;;
18286;SDS011;9269;50.838;12.094;2022-09-13T03:35:14;6.33;;;5.73;;
18286;SDS011;9269;50.838;12.094;2022-09-13T03:37:50;6.70;;;6.00;;
18286;SDS011;9269;50.838;12.094;2022-09-13T03:40:24;7.67;;;6.60;;
18286;SDS011;9269;50.838;12.094;2022-09-13T03:43:02;7.33;;;6.70;;
18286;SDS011;9269;50.838;12.094;2022-09-13T03:45:35;6.67;;;6.07;;
18286;SDS011;9269;50.838;12.094;2022-09-13T03:48:08;7.83;;;7.13;;
18286;SDS011;9269;50.838;12.094;2022-09-13T03:50:40;8.53;;;7.40;;
18286;SDS011;9269;50.838;12.094;2022-09-13T03:53:09;8.27;;;7.33;;
18286;SDS011;9269;50.838;12.094;2022-09-13T03:55:41;8.60;;;7.80;;
18286;SDS011;9269;50.838;12.094;2022-09-13T03:58:11;7.73;;;7.03;;
18286;SDS011;9269;50.838;12.094;2022-09-13T04:00:39;7.80;;;6.90;;
18286;SDS011;9269;50.838;12.094;2022-09-13T04:03:07;7.50;;;6.70;;
18286;SDS011;9269;50.838;12.094;2022-09-13T04:05:36;7.70;;;6.70;;
18286;SDS011;9269;50.838;12.094;2022-09-13T04:08:06;7.10;;;6.50;;
18286;SDS011;9269;50.838;12.094;2022-09-13T04:10:36;7.40;;;6.70;;
18286;SDS011;9269;50.838;12.094;2022-09-13T04:13:06;7.10;;;6.40;;
18286;SDS011;9269;50.838;12.094;2022-09-13T04:15:34;6.90;;;6.30;;
18286;SDS011;9269;50.838;12.094;2022-09-13T04:18:02;7.33;;;6.70;;
18286;SDS011;9269;50.838;12.094;2022-09-13T04:20:31;7.67;;;6.73;;
18286;SDS011;9269;50.838;12.094;2022-09-13T04:22:59;6.93;;;6.33;;
18286;SDS011;9269;50.838;12.094;2022-09-13T04:25:29;7.27;;;6.57;;
18286;SDS011;9269;50.838;12.094;2022-09-13T04:27:59;8.10;;;7.20;;
18286;SDS011;9269;50.838;12.094;2022-09-13T04:30:28;6.67;;;6.07;;
18286;SDS011;9269;50.838;12.094;2022-09-13T04:32:57;8.47;;;6.90;;
18286;SDS011;9269;50.838;12.094;2022-09-13T04:35:26;7.87;;;7.07;;
18286;SDS011;9269;50.838;12.094;2022-09-13T04:37:55;8.23;;;7.37;;
18286;SDS011;9269;50.838;12.094;2022-09-13T04:40:25;7.67;;;6.97;;
18286;SDS011;9269;50.838;12.094;2022-09-13T04:42:56;8.60;;;7.80;;
18286;SDS011;9269;50.838;12.094;2022-09-13T04:45:25;8.93;;;7.63;;
18286;SDS011;9269;50.838;12.094;2022-09-13T04:47:54;7.73;;;7.03;;
18286;SDS011;9269;50.838;12.094;2022-09-13T04:50:23;8.37;;;7.43;;
18286;SDS011;9269;50.838;12.094;2022-09-13T04:52:53;7.93;;;7.13;;
18286;SDS011;9269;50.838;12.094;2022-09-13T04:55:21;7.70;;;7.00;;
18286;SDS011;9269;50.838;12.094;2022-09-13T04:57:53;8.33;;;7.53;;
18286;SDS011;9269;50.838;12.094;2022-09-13T05:00:23;8.40;;;7.60;;
18286;SDS011;9269;50.838;12.094;2022-09-13T05:02:55;8.40;;;7.53;;
18286;SDS011;9269;50.838;12.094;2022-09-13T05:05:23;8.30;;;7.50;;
18286;SDS011;9269;50.838;12.094;2022-09-13T05:07:54;8.37;;;7.60;;
18286;SDS011;9269;50.838;12.094;2022-09-13T05:10:22;8.30;;;7.60;;
18286;SDS011;9269;50.838;12.094;2022-09-13T05:12:51;7.97;;;7.27;;
18286;SDS011;9269;50.838;12.094;2022-09-13T05:15:19;11.10;;;8.10;;
18286;SDS011;9269;50.838;12.094;2022-09-13T05:17:49;7.77;;;7.00;;
18286;SDS011;9269;50.838;12.094;2022-09-13T05:20:18;8.87;;;8.03;;
18286;SDS011;9269;50.838;12.094;2022-09-13T05:22:47;8.30;;;7.60;;
18286;SDS011;9269;50.838;12.094;2022-09-13T05:25:16;10.30;;;8.03;;
18286;SDS011;9269;50.838;12.094;2022-09-13T05:27:51;8.33;;;7.53;;
18286;SDS011;9269;50.838;12.094;2022-09-13T05:30:21;8.67;;;7.70;;
18286;SDS011;9269;50.838;12.094;2022-09-13T05:32:51;8.67;;;7.53;;
18286;SDS011;9269;50.838;12.094;2022-09-13T05:35:20;8.80;;;7.90;;
18286;SDS011;9269;50.838;12.094;2022-09-13T05:37:48;8.50;;;7.70;;
18286;SDS011;9269;50.838;12.094;2022-09-13T05:40:17;10.10;;;9.20;;
18286;SDS011;9269;50.838;12.094;2022-09-13T05:42:46;11.40;;;8.27;;
18286;SDS011;9269;50.838;12.094;2022-09-13T05:45:14;8.80;;;8.00;;
18286;SDS011;9269;50.838;12.094;2022-09-13T05:47:42;8.40;;;7.60;;
18286;SDS011;9269;50.838;12.094;2022-09-13T05:50:13;9.60;;;8.67;;
18286;SDS011;9269;50.838;12.094;2022-09-13T05:53:03;9.10;;;8.20;;
18286;SDS011;9269;50.838;12.094;2022-09-13T05:55:32;8.60;;;7.90;;
18286;SDS011;9269;50.838;12.094;2022-09-13T05:58:01;8.80;;;7.87;;
18286;SDS011;9269;50.838;12.094;2022-09-13T06:00:30;8.70;;;7.97;;
18286;SDS011;9269;50.838;12.094;2022-09-13T06:02:59;8.70;;;7.83;;
18286;SDS011;9269;50.838;12.094;2022-09-13T06:05:28;9.03;;;8.23;;
18286;SDS011;9269;50.838;12.094;2022-09-13T06:07:57;8.77;;;8.00;;
18286;SDS011;9269;50.838;12.094;2022-09-13T06:10:25;9.00;;;7.57;;
18286;SDS011;9269;50.838;12.094;2022-09-13T06:12:54;8.90;;;8.10;;
18286;SDS011;9269;50.838;12.094;2022-09-13T06:15:22;10.43;;;8.17;;
18286;SDS011;9269;50.838;12.094;2022-09-13T06:17:50;8.50;;;7.80;;
18286;SDS011;9269;50.838;12.094;2022-09-13T06:20:21;8.93;;;8.13;;
18286;SDS011;9269;50.838;12.094;2022-09-13T06:22:51;8.70;;;7.90;;
18286;SDS011;9269;50.838;12.094;2022-09-13T06:25:19;8.93;;;8.13;;
18286;SDS011;9269;50.838;12.094;2022-09-13T06:27:48;9.27;;;8.33;;
18286;SDS011;9269;50.838;12.094;2022-09-13T06:30:17;9.37;;;8.00;;
18286;SDS011;9269;50.838;12.094;2022-09-13T06:32:46;9.13;;;7.83;;
18286;SDS011;9269;50.838;12.094;2022-09-13T06:35:14;9.60;;;8.70;;
18286;SDS011;9269;50.838;12.094;2022-09-13T06:37:44;12.10;;;9.20;;
18286;SDS011;9269;50.838;12.094;2022-09-13T06:40:14;10.10;;;8.40;;
18286;SDS011;9269;50.838;12.094;2022-09-13T06:42:46;8.87;;;7.93;;
18286;SDS011;9269;50.838;12.094;2022-09-13T06:45:14;9.30;;;8.20;;
18286;SDS011;9269;50.838;12.094;2022-09-13T06:47:45;9.30;;;8.47;;
18286;SDS011;9269;50.838;12.094;2022-09-13T06:50:14;9.20;;;8.30;;
18286;SDS011;9269;50.838;12.094;2022-09-13T06:52:46;8.77;;;7.87;;
18286;SDS011;9269;50.838;12.094;2022-09-13T06:55:16;9.33;;;7.80;;
18286;SDS011;9269;50.838;12.094;2022-09-13T06:57:44;8.87;;;8.07;;
18286;SDS011;9269;50.838;12.094;2022-09-13T07:00:12;8.13;;;7.43;;
18286;SDS011;9269;50.838;12.094;2022-09-13T07:02:43;7.97;;;7.17;;
18286;SDS011;9269;50.838;12.094;2022-09-13T07:05:11;8.23;;;7.50;;
18286;SDS011;9269;50.838;12.094;2022-09-13T07:07:40;7.87;;;7.13;;
18286;SDS011;9269;50.838;12.094;2022-09-13T07:10:10;7.53;;;6.83;;
18286;SDS011;9269;50.838;12.094;2022-09-13T07:12:40;8.33;;;7.10;;
18286;SDS011;9269;50.838;12.094;2022-09-13T07:15:13;7.63;;;6.93;;
18286;SDS011;9269;50.838;12.094;2022-09-13T07:17:41;7.87;;;7.17;;
18286;SDS011;9269;50.838;12.094;2022-09-13T07:20:10;7.63;;;6.93;;
18286;SDS011;9269;50.838;12.094;2022-09-13T07:22:38;8.37;;;7.03;;
18286;SDS011;9269;50.838;12.094;2022-09-13T07:25:07;7.83;;;7.10;;
18286;SDS011;9269;50.838;12.094;2022-09-13T07:27:36;7.40;;;6.60;;
18286;SDS011;9269;50.838;12.094;2022-09-13T07:30:06;7.60;;;6.90;;
18286;SDS011;9269;50.838;12.094;2022-09-13T07:32:35;8.00;;;7.20;;
18286;SDS011;9269;50.838;12.094;2022-09-13T07:35:07;9.70;;;7.00;;
18286;SDS011;9269;50.838;12.094;2022-09-13T07:37:35;6.97;;;6.33;;
18286;SDS011;9269;50.838;12.094;2022-09-13T07:40:03;7.33;;;6.63;;
18286;SDS011;9269;50.838;12.094;2022-09-13T07:42:33;7.07;;;6.47;;
18286;SDS011;9269;50.838;12.094;2022-09-13T07:45:01;7.63;;;6.90;;
18286;SDS011;9269;50.838;12.094;2022-09-13T07:47:32;6.23;;;5.73;;
18286;SDS011;9269;50.838;12.094;2022-09-13T07:50:14;7.73;;;6.93;;
18286;SDS011;9269;50.838;12.094;2022-09-13T07:52:42;7.37;;;6.77;;
18286;SDS011;9269;50.838;12.094;2022-09-13T07:55:10;7.10;;;6.40;;
18286;SDS011;9269;50.838;12.094;2022-09-13T07:57:38;7.07;;;6.40;;
18286;SDS011;9269;50.838;12.094;2022-09-13T08:00:08;7.47;;;6.87;;
18286;SDS011;9269;50.838;12.094;2022-09-13T08:02:39;6.63;;;6.13;;
18286;SDS011;9269;50.838;12.094;2022-09-13T08:05:07;6.93;;;6.43;;
18286;SDS011;9269;50.838;12.094;2022-09-13T08:07:36;7.63;;;6.90;;
18286;SDS011;9269;50.838;12.094;2022-09-13T08:10:19;7.40;;;6.40;;
18286;SDS011;9269;50.838;12.094;2022-09-13T08:12:47;7.30;;;6.70;;
18286;SDS011;9269;50.838;12.094;2022-09-13T08:15:16;7.43;;;6.70;;
18286;SDS011;9269;50.838;12.094;2022-09-13T08:17:45;6.93;;;6.30;;
18286;SDS011;9269;50.838;12.094;2022-09-13T08:20:13;8.50;;;7.23;;
18286;SDS011;9269;50.838;12.094;2022-09-13T08:22:42;7.70;;;6.93;;
18286;SDS011;9269;50.838;12.094;2022-09-13T08:25:11;8.13;;;7.33;;
18286;SDS011;9269;50.838;12.094;2022-09-13T08:27:39;7.27;;;6.67;;
18286;SDS011;9269;50.838;12.094;2022-09-13T08:30:22;7.50;;;6.80;;
18286;SDS011;9269;50.838;12.094;2022-09-13T08:32:52;7.43;;;6.80;;
18286;SDS011;9269;50.838;12.094;2022-09-13T08:35:20;7.73;;;6.97;;
18286;SDS011;9269;50.838;12.094;2022-09-13T08:37:49;8.17;;;7.37;;
18286;SDS011;9269;50.838;12.094;2022-09-13T08:40:18;7.30;;;6.70;;
18286;SDS011;9269;50.838;12.094;2022-09-13T08:42:49;7.87;;;7.17;;
18286;SDS011;9269;50.838;12.094;2022-09-13T08:45:20;7.63;;;6.93;;
18286;SDS011;9269;50.838;12.094;2022-09-13T08:47:53;8.30;;;7.50;;
18286;SDS011;9269;50.838;12.094;2022-09-13T08:50:27;7.90;;;7.10;;
18286;SDS011;9269;50.838;12.094;2022-09-13T08:53:03;8.27;;;7.57;;
18286;SDS011;9269;50.838;12.094;2022-09-13T08:55:42;8.77;;;7.40;;
18286;SDS011;9269;50.838;12.094;2022-09-13T08:58:21;7.77;;;6.97;;
18286;SDS011;9269;50.838;12.094;2022-09-13T09:01:04;8.57;;;6.93;;
18286;SDS011;9269;50.838;12.094;2022-09-13T09:03:40;7.50;;;6.80;;
18286;SDS011;9269;50.838;12.094;2022-09-13T09:06:13;7.27;;;6.67;;
18286;SDS011;9269;50.838;12.094;2022-09-13T09:08:44;7.70;;;6.70;;
18286;SDS011;9269;50.838;12.094;2022-09-13T09:11:18;7.03;;;6.37;;
18286;SDS011;9269;50.838;12.094;2022-09-13T09:13:56;7.47;;;6.80;;
18286;SDS011;9269;50.838;12.094;2022-09-13T09:16:32;6.97;;;6.37;;
18286;SDS011;9269;50.838;12.094;2022-09-13T09:19:11;7.40;;;6.67;;
18286;SDS011;9269;50.838;12.094;2022-09-13T09:21:44;6.73;;;6.20;;
18286;SDS011;9269;50.838;12.094;2022-09-13T09:24:17;6.70;;;6.10;;
18286;SDS011;9269;50.838;12.094;2022-09-13T09:26:48;6.60;;;6.00;;
18286;SDS011;9269;50.838;12.094;2022-09-13T09:29:18;7.00;;;6.40;;
18286;SDS011;9269;50.838;12.094;2022-09-13T09:31:56;6.40;;;5.80;;
18286;SDS011;9269;50.838;12.094;2022-09-13T09:34:44;7.07;;;6.37;;
18286;SDS011;9269;50.838;12.094;2022-09-13T09:37:22;6.00;;;5.60;;
18286;SDS011;9269;50.838;12.094;2022-09-13T09:39:52;6.57;;;6.07;;
18286;SDS011;9269;50.838;12.094;2022-09-13T09:42:29;6.67;;;6.03;;
18286;SDS011;9269;50.838;12.094;2022-09-13T09:45:03;6.13;;;5.63;;
18286;SDS011;9269;50.838;12.094;2022-09-13T09:47:37;6.27;;;5.77;;
18286;SDS011;9269;50.838;12.094;2022-09-13T09:50:12;6.00;;;5.60;;
18286;SDS011;9269;50.838;12.094;2022-09-13T09:52:45;6.73;;;6.03;;
18286;SDS011;9269;50.838;12.094;2022-09-13T09:55:23;6.10;;;5.60;;
18286;SDS011;9269;50.838;12.094;2022-09-13T09:57:55;5.67;;;5.27;;
18286;SDS011;9269;50.838;12.094;2022-09-13T10:00:32;6.37;;;5.87;;
18286;SDS011;9269;50.838;12.094;2022-09-13T10:03:04;5.70;;;5.20;;
18286;SDS011;9269;50.838;12.094;2022-09-13T10:05:39;6.40;;;5.90;;
18286;SDS011;9269;50.838;12.094;2022-09-13T10:08:19;6.67;;;6.07;;
18286;SDS011;9269;50.838;12.094;2022-09-13T10:10:54;5.90;;;5.40;;
18286;SDS011;9269;50.838;12.094;2022-09-13T10:13:25;5.93;;;5.37;;
18286;SDS011;9269;50.838;12.094;2022-09-13T10:15:59;6.20;;;5.53;;
18286;SDS011;9269;50.838;12.094;2022-09-13T10:18:30;6.20;;;5.60;;
18286;SDS011;9269;50.838;12.094;2022-09-13T10:21:20;5.33;;;4.87;;
18286;SDS011;9269;50.838;12.094;2022-09-13T10:23:56;5.20;;;4.90;;
18286;SDS011;9269;50.838;12.094;2022-09-13T10:26:48;5.17;;;4.67;;
18286;SDS011;9269;50.838;12.094;2022-09-13T10:29:16;5.40;;;4.90;;
18286;SDS011;9269;50.838;12.094;2022-09-13T10:31:47;4.77;;;4.37;;
18286;SDS011;9269;50.838;12.094;2022-09-13T10:34:19;4.40;;;4.00;;
18286;SDS011;9269;50.838;12.094;2022-09-13T10:36:52;4.27;;;3.87;;
18286;SDS011;9269;50.838;12.094;2022-09-13T10:39:24;4.07;;;3.47;;
18286;SDS011;9269;50.838;12.094;2022-09-13T10:41:55;3.70;;;3.40;;
18286;SDS011;9269;50.838;12.094;2022-09-13T10:44:27;3.70;;;3.40;;
18286;SDS011;9269;50.838;12.094;2022-09-13T10:47:00;3.30;;;3.10;;
18286;SDS011;9269;50.838;12.094;2022-09-13T10:49:38;3.30;;;3.00;;
18286;SDS011;9269;50.838;12.094;2022-09-13T10:52:25;2.93;;;2.73;;
18286;SDS011;9269;50.838;12.094;2022-09-13T10:58:12;2.47;;;2.30;;
18286;SDS011;9269;50.838;12.094;2022-09-13T11:00:49;2.53;;;2.40;;
18286;SDS011;9269;50.838;12.094;2022-09-13T11:03:37;3.30;;;3.10;;
18286;SDS011;9269;50.838;12.094;2022-09-13T11:06:33;2.67;;;2.47;;
18286;SDS011;9269;50.838;12.094;2022-09-13T11:09:10;2.80;;;2.60;;
18286;SDS011;9269;50.838;12.094;2022-09-13T11:11:45;2.90;;;2.50;;
18286;SDS011;9269;50.838;12.094;2022-09-13T11:14:27;3.07;;;2.60;;
18286;SDS011;9269;50.838;12.094;2022-09-13T11:17:06;3.07;;;2.77;;
18286;SDS011;9269;50.838;12.094;2022-09-13T11:19:52;3.37;;;2.43;;
18286;SDS011;9269;50.838;12.094;2022-09-13T11:22:34;3.03;;;2.83;;
18286;SDS011;9269;50.838;12.094;2022-09-13T11:25:24;2.80;;;2.60;;
18286;SDS011;9269;50.838;12.094;2022-09-13T11:27:59;2.97;;;2.77;;
18286;SDS011;9269;50.838;12.094;2022-09-13T11:30:37;2.80;;;2.60;;
18286;SDS011;9269;50.838;12.094;2022-09-13T11:33:18;3.30;;;3.00;;
18286;SDS011;9269;50.838;12.094;2022-09-13T11:38:52;3.10;;;2.87;;
18286;SDS011;9269;50.838;12.094;2022-09-13T11:41:33;3.50;;;3.17;;
18286;SDS011;9269;50.838;12.094;2022-09-13T11:44:17;2.83;;;2.63;;
18286;SDS011;9269;50.838;12.094;2022-09-13T11:47:13;3.13;;;2.93;;
18286;SDS011;9269;50.838;12.094;2022-09-13T11:49:58;3.20;;;2.67;;
18286;SDS011;9269;50.838;12.094;2022-09-13T11:52:39;2.93;;;2.73;;
18286;SDS011;9269;50.838;12.094;2022-09-13T11:55:16;3.10;;;2.80;;
18286;SDS011;9269;50.838;12.094;2022-09-13T11:57:50;3.00;;;2.80;;
18286;SDS011;9269;50.838;12.094;2022-09-13T12:00:22;2.80;;;2.60;;
18286;SDS011;9269;50.838;12.094;2022-09-13T12:03:01;2.83;;;2.63;;
18286;SDS011;9269;50.838;12.094;2022-09-13T12:05:38;3.43;;;3.13;;
18286;SDS011;9269;50.838;12.094;2022-09-13T12:08:11;3.47;;;3.17;;
18286;SDS011;9269;50.838;12.094;2022-09-13T12:10:44;3.20;;;2.90;;
18286;SDS011;9269;50.838;12.094;2022-09-13T12:13:19;3.13;;;2.90;;
18286;SDS011;9269;50.838;12.094;2022-09-13T12:15:52;2.90;;;2.70;;
18286;SDS011;9269;50.838;12.094;2022-09-13T12:18:25;2.83;;;2.63;;
18286;SDS011;9269;50.838;12.094;2022-09-13T12:20:57;3.10;;;2.90;;
18286;SDS011;9269;50.838;12.094;2022-09-13T12:23:34;3.20;;;2.90;;
18286;SDS011;9269;50.838;12.094;2022-09-13T12:26:06;3.30;;;3.10;;
18286;SDS011;9269;50.838;12.094;2022-09-13T12:28:39;3.20;;;2.90;;
18286;SDS011;9269;50.838;12.094;2022-09-13T12:31:12;3.17;;;2.87;;
18286;SDS011;9269;50.838;12.094;2022-09-13T12:33:45;3.23;;;3.03;;
18286;SDS011;9269;50.838;12.094;2022-09-13T12:36:18;2.80;;;2.60;;
18286;SDS011;9269;50.838;12.094;2022-09-13T12:42:24;3.20;;;3.00;;
18286;SDS011;9269;50.838;12.094;2022-09-13T12:45:19;2.90;;;2.70;;
18286;SDS011;9269;50.838;12.094;2022-09-13T12:48:06;3.20;;;2.90;;
18286;SDS011;9269;50.838;12.094;2022-09-13T12:50:45;2.90;;;2.70;;
18286;SDS011;9269;50.838;12.094;2022-09-13T12:53:35;2.80;;;2.60;;
18286;SDS011;9269;50.838;12.094;2022-09-13T12:56:27;3.10;;;2.80;;
18286;SDS011;9269;50.838;12.094;2022-09-13T12:59:08;3.17;;;2.97;;
18286;SDS011;9269;50.838;12.094;2022-09-13T13:02:18;3.20;;;2.90;;
18286;SDS011;9269;50.838;12.094;2022-09-13T13:04:53;3.27;;;2.97;;
18286;SDS011;9269;50.838;12.094;2022-09-13T13:07:24;3.20;;;2.90;;
18286;SDS011;9269;50.838;12.094;2022-09-13T13:09:56;2.80;;;2.60;;
18286;SDS011;9269;50.838;12.094;2022-09-13T13:12:26;3.33;;;3.03;;
18286;SDS011;9269;50.838;12.094;2022-09-13T13:14:59;2.80;;;2.50;;
18286;SDS011;9269;50.838;12.094;2022-09-13T13:17:43;3.03;;;2.83;;
18286;SDS011;9269;50.838;12.094;2022-09-13T13:23:17;2.63;;;2.53;;
18286;SDS011;9269;50.838;12.094;2022-09-13T13:25:59;2.70;;;2.53;;
18286;SDS011;9269;50.838;12.094;2022-09-13T13:28:47;2.70;;;2.50;;
18286;SDS011;9269;50.838;12.094;2022-09-13T13:31:39;2.80;;;2.60;;
18286;SDS011;9269;50.838;12.094;2022-09-13T13:34:29;2.53;;;2.40;;
18286;SDS011;9269;50.838;12.094;2022-09-13T13:37:20;3.00;;;2.70;;
18286;SDS011;9269;50.838;12.094;2022-09-13T13:42:49;2.57;;;2.37;;
18286;SDS011;9269;50.838;12.094;2022-09-13T13:45:19;3.57;;;2.20;;
18286;SDS011;9269;50.838;12.094;2022-09-13T13:48:05;2.30;;;2.20;;
18286;SDS011;9269;50.838;12.094;2022-09-13T13:53:51;2.40;;;2.20;;
18286;SDS011;9269;50.838;12.094;2022-09-13T13:56:25;2.23;;;2.10;;
18286;SDS011;9269;50.838;12.094;2022-09-13T13:59:06;2.20;;;2.07;;
18286;SDS011;9269;50.838;12.094;2022-09-13T14:01:43;2.67;;;2.27;;
18286;SDS011;9269;50.838;12.094;2022-09-13T14:04:30;1.80;;;1.70;;
18286;SDS011;9269;50.838;12.094;2022-09-13T14:07:22;2.27;;;2.13;;
18286;SDS011;9269;50.838;12.094;2022-09-13T14:10:02;2.23;;;2.13;;
18286;SDS011;9269;50.838;12.094;2022-09-13T14:12:39;1.90;;;1.80;;
18286;SDS011;9269;50.838;12.094;2022-09-13T14:15:23;2.13;;;2.03;;
18286;SDS011;9269;50.838;12.094;2022-09-13T14:21:08;2.30;;;2.10;;
18286;SDS011;9269;50.838;12.094;2022-09-13T14:23:45;3.90;;;2.03;;
18286;SDS011;9269;50.838;12.094;2022-09-13T14:26:16;2.30;;;2.20;;
18286;SDS011;9269;50.838;12.094;2022-09-13T14:28:44;2.23;;;2.03;;
18286;SDS011;9269;50.838;12.094;2022-09-13T14:31:16;2.40;;;2.20;;
18286;SDS011;9269;50.838;12.094;2022-09-13T14:33:46;2.63;;;2.30;;
18286;SDS011;9269;50.838;12.094;2022-09-13T14:36:18;2.10;;;2.00;;
18286;SDS011;9269;50.838;12.094;2022-09-13T14:38:49;3.10;;;2.40;;
18286;SDS011;9269;50.838;12.094;2022-09-13T14:41:28;2.63;;;2.47;;
18286;SDS011;9269;50.838;12.094;2022-09-13T14:44:12;2.80;;;2.40;;
18286;SDS011;9269;50.838;12.094;2022-09-13T14:46:51;3.03;;;2.63;;
18286;SDS011;9269;50.838;12.094;2022-09-13T14:49:26;2.70;;;2.50;;
18286;SDS011;9269;50.838;12.094;2022-09-13T14:52:07;2.83;;;2.30;;
18286;SDS011;9269;50.838;12.094;2022-09-13T14:54:41;2.80;;;2.60;;
18286;SDS011;9269;50.838;12.094;2022-09-13T14:57:18;2.90;;;2.40;;
18286;SDS011;9269;50.838;12.094;2022-09-13T14:59:51;2.43;;;2.23;;
18286;SDS011;9269;50.838;12.094;2022-09-13T15:02:24;2.60;;;2.40;;
18286;SDS011;9269;50.838;12.094;2022-09-13T15:04:57;2.67;;;2.47;;
18286;SDS011;9269;50.838;12.094;2022-09-13T15:07:32;2.73;;;2.53;;
18286;SDS011;9269;50.838;12.094;2022-09-13T15:10:05;2.83;;;2.63;;
18286;SDS011;9269;50.838;12.094;2022-09-13T15:12:37;3.30;;;3.07;;
18286;SDS011;9269;50.838;12.094;2022-09-13T15:15:34;2.93;;;2.73;;
18286;SDS011;9269;50.838;12.094;2022-09-13T15:18:04;3.57;;;2.93;;
18286;SDS011;9269;50.838;12.094;2022-09-13T15:20:44;3.53;;;3.20;;
18286;SDS011;9269;50.838;12.094;2022-09-13T15:23:16;4.33;;;4.00;;
18286;SDS011;9269;50.838;12.094;2022-09-13T15:25:47;4.50;;;3.63;;
18286;SDS011;9269;50.838;12.094;2022-09-13T15:28:23;3.83;;;3.53;;
18286;SDS011;9269;50.838;12.094;2022-09-13T15:30:54;3.20;;;3.00;;
18286;SDS011;9269;50.838;12.094;2022-09-13T15:33:25;7.20;;;4.53;;
18286;SDS011;9269;50.838;12.094;2022-09-13T15:38:55;2.53;;;2.33;;
18286;SDS011;9269;50.838;12.094;2022-09-13T15:41:29;2.47;;;2.23;;
18286;SDS011;9269;50.838;12.094;2022-09-13T15:44:08;2.50;;;2.30;;
18286;SDS011;9269;50.838;12.094;2022-09-13T15:46:46;2.40;;;2.20;;
18286;SDS011;9269;50.838;12.094;2022-09-13T15:49:18;2.73;;;2.53;;
18286;SDS011;9269;50.838;12.094;2022-09-13T15:51:51;2.50;;;2.30;;
18286;SDS011;9269;50.838;12.094;2022-09-13T15:54:23;4.43;;;2.57;;